Time;durP1;ratioP1;P1;durP2;ratioP2;P2;SDS_P1;SDS_P2;PMS_P1;PMS_P2;Temp;Humidity;BMP_temperature;BMP_pressure;BME280_temperature;BME280_humidity;BME280_pressure;Samples;Min_cycle;Max_cycle;Signal;HPM_P1;HPM_P2
2023/07/18 00:02:12;0.00;0.00;0.62;0.00;0.00;0.62;;;;;22.90;1.00;;;;;;2280647;60;1433;-85
2023/07/18 00:04:39;69164.00;0.23;120.32;0.00;0.00;0.62;;;;;22.50;1.00;;;;;;2280559;60;1996;-85
2023/07/18 00:07:07;16435.00;0.05;29.10;0.00;0.00;0.62;;;;;22.60;1.00;;;;;;2280633;60;1066;-86
2023/07/18 00:09:35;33185.00;0.11;58.10;0.00;0.00;0.62;;;;;22.60;1.00;;;;;;2280637;60;1187;-85
2023/07/18 00:12:02;0.00;0.00;0.62;0.00;0.00;0.62;;;;;22.80;1.00;;;;;;2280539;60;1377;-86
2023/07/18 00:14:29;278535.00;0.93;481.02;72457.00;0.24;126.01;;;;;22.70;1.00;;;;;;2280603;60;1042;-85
2023/07/18 00:16:56;0.00;0.00;0.62;0.00;0.00;0.62;;;;;22.70;1.00;;;;;;2280510;60;1514;-85
2023/07/18 00:19:24;34131.00;0.11;59.73;0.00;0.00;0.62;;;;;23.10;1.00;;;;;;2280531;60;1112;-84
2023/07/18 00:21:51;34023.00;0.11;59.55;0.00;0.00;0.62;;;;;23.20;1.00;;;;;;2280259;60;1364;-86
2023/07/18 00:24:18;0.00;0.00;0.62;0.00;0.00;0.62;;;;;23.50;1.00;;;;;;2280549;60;1990;-85
2023/07/18 00:26:46;0.00;0.00;0.62;0.00;0.00;0.62;;;;;23.70;1.00;;;;;;2280586;60;1149;-84
2023/07/18 00:29:12;44508.00;0.15;77.69;0.00;0.00;0.62;;;;;23.90;1.00;;;;;;2280580;60;1096;-85
2023/07/18 00:31:39;0.00;0.00;0.62;0.00;0.00;0.62;;;;;23.80;1.00;;;;;;2280495;60;1430;-85
2023/07/18 00:34:06;0.00;0.00;0.62;0.00;0.00;0.62;;;;;23.40;1.00;;;;;;2280619;60;1113;-86
2023/07/18 00:36:34;21670.00;0.07;38.16;0.00;0.00;0.62;;;;;23.10;1.00;;;;;;2280546;60;1137;-84
2023/07/18 00:39:03;212748.00;0.71;367.86;76551.00;0.26;133.08;;;;;23.30;1.00;;;;;;2280491;60;1028;-84
2023/07/18 00:41:30;49364.00;0.16;86.09;0.00;0.00;0.62;;;;;23.00;1.00;;;;;;2280476;60;1312;-86
2023/07/18 00:43:56;156010.00;0.52;270.16;36831.00;0.12;64.41;;;;;22.60;1.00;;;;;;2280464;60;1998;-85
2023/07/18 00:46:23;0.00;0.00;0.62;0.00;0.00;0.62;;;;;22.60;1.00;;;;;;2280443;60;1145;-87
2023/07/18 00:48:50;0.00;0.00;0.62;0.00;0.00;0.62;;;;;22.80;1.00;;;;;;2280492;60;1047;-86
2023/07/18 00:51:17;108557.00;0.36;188.34;0.00;0.00;0.62;;;;;22.60;1.00;;;;;;2280432;60;1360;-85
2023/07/18 00:53:46;9514.00;0.03;17.11;0.00;0.00;0.62;;;;;22.70;1.00;;;;;;2280502;60;1121;-86
2023/07/18 00:56:13;199762.00;0.67;345.51;23994.00;0.08;42.19;;;;;22.60;1.00;;;;;;2280475;60;1120;-85
2023/07/18 00:58:41;17390.00;0.06;30.75;0.00;0.00;0.62;;;;;22.70;1.00;;;;;;2280474;60;1110;-86
2023/07/18 01:01:08;69278.00;0.23;120.51;0.00;0.00;0.62;;;;;22.90;1.00;;;;;;2280423;60;1380;-86
2023/07/18 01:03:37;375573.00;1.25;647.82;144137.00;0.48;249.70;;;;;22.70;1.00;;;;;;2280262;60;1071;-85
2023/07/18 01:06:04;45993.00;0.15;80.26;0.00;0.00;0.62;;;;;22.30;1.00;;;;;;2280454;60;2091;-86
2023/07/18 01:08:31;0.00;0.00;0.62;0.00;0.00;0.62;;;;;22.70;1.00;;;;;;2280420;60;1089;-87
2023/07/18 01:10:59;0.00;0.00;0.62;0.00;0.00;0.62;;;;;22.70;1.00;;;;;;2279945;60;1310;-85
2023/07/18 01:13:26;166606.00;0.56;288.42;0.00;0.00;0.62;;;;;22.50;1.00;;;;;;2280389;60;1108;-86
2023/07/18 01:15:53;38722.00;0.13;67.68;0.00;0.00;0.62;;;;;22.60;1.00;;;;;;2280335;60;1165;-84
2023/07/18 01:18:20;13556.00;0.05;24.11;0.00;0.00;0.62;;;;;22.50;1.00;;;;;;2280393;60;1614;-84
2023/07/18 01:20:48;391133.00;1.30;674.56;156839.00;0.52;271.59;;;;;22.80;1.00;;;;;;2280313;60;1084;-84
2023/07/18 01:23:17;82298.00;0.27;143.01;0.00;0.00;0.62;;;;;23.00;1.00;;;;;;2280369;60;1184;-86
2023/07/18 01:25:43;21671.00;0.07;38.16;0.00;0.00;0.62;;;;;23.20;1.00;;;;;;2280400;60;2008;-86
2023/07/18 01:28:11;259143.00;0.86;447.67;0.00;0.00;0.62;;;;;22.70;1.00;;;;;;2280369;60;1106;-85
2023/07/18 01:30:38;0.00;0.00;0.62;0.00;0.00;0.62;;;;;22.60;1.00;;;;;;2280285;60;999;-85
2023/07/18 01:33:06;0.00;0.00;0.62;0.00;0.00;0.62;;;;;22.30;1.00;;;;;;2280309;60;1304;-85
2023/07/18 01:35:34;117407.00;0.39;203.61;0.00;0.00;0.62;;;;;22.30;1.00;;;;;;2280258;60;1810;-85
2023/07/18 01:38:01;151077.00;0.50;261.66;0.00;0.00;0.62;;;;;22.50;1.00;;;;;;2280285;60;1161;-85
2023/07/18 01:40:29;129661.00;0.43;224.74;0.00;0.00;0.62;;;;;22.30;1.00;;;;;;2280319;60;979;-85
2023/07/18 01:42:58;238367.00;0.79;411.94;0.00;0.00;0.62;;;;;22.50;1.00;;;;;;2280248;60;2064;-86
2023/07/18 01:45:28;59111.00;0.20;102.94;0.00;0.00;0.62;;;;;22.90;1.00;;;;;;2280297;60;2000;-86
2023/07/18 01:47:56;0.00;0.00;0.62;0.00;0.00;0.62;;;;;23.00;1.00;;;;;;2280194;60;1025;-86
2023/07/18 01:50:23;23292.00;0.08;40.97;0.00;0.00;0.62;;;;;23.10;1.00;;;;;;2280276;60;1051;-85
2023/07/18 01:52:51;77155.00;0.26;134.12;3831.00;0.01;7.26;;;;;23.20;1.00;;;;;;2280284;60;1298;-85
2023/07/18 01:55:17;39218.00;0.13;68.54;0.00;0.00;0.62;;;;;23.40;1.00;;;;;;2280291;60;1137;-85
2023/07/18 01:57:47;127429.00;0.42;220.90;0.00;0.00;0.62;;;;;23.30;1.00;;;;;;2280243;60;2129;-86
2023/07/18 02:00:18;261558.00;0.87;451.83;0.00;0.00;0.62;;;;;22.60;1.00;;;;;;2280286;60;1024;-86
2023/07/18 02:02:48;108987.00;0.36;189.08;0.00;0.00;0.62;;;;;22.10;1.00;;;;;;2280288;60;1393;-85
2023/07/18 02:05:15;172631.00;0.58;298.80;0.00;0.00;0.62;;;;;22.30;1.00;;;;;;2280316;60;1992;-84
2023/07/18 02:07:42;181278.00;0.60;313.69;0.00;0.00;0.62;;;;;22.30;1.00;;;;;;2280240;60;942;-86
2023/07/18 02:10:09;298295.00;0.99;514.99;0.00;0.00;0.62;;;;;22.60;1.00;;;;;;2280282;60;1691;-85
2023/07/18 02:12:36;554557.00;1.85;955.82;17848.00;0.06;31.54;;;;;22.60;1.00;;;;;;2280244;60;1376;-85
2023/07/18 02:15:06;319388.00;1.06;551.25;0.00;0.00;0.62;;;;;22.30;1.00;;;;;;2280297;60;1165;-85
2023/07/18 02:17:33;606490.00;2.02;1045.43;0.00;0.00;0.62;;;;;22.60;1.00;;;;;;2280274;60;980;-85
2023/07/18 02:20:00;330588.00;1.10;570.50;32497.00;0.11;56.90;;;;;22.70;1.00;;;;;;2280160;60;1110;-84
2023/07/18 02:22:27;909754.00;3.03;1573.26;212025.00;0.71;366.62;;;;;22.90;1.00;;;;;;2280156;60;1381;-85
2023/07/18 02:24:54;352003.00;1.17;607.30;0.00;0.00;0.62;;;;;23.00;1.00;;;;;;2280163;60;2066;-85
2023/07/18 02:27:22;258478.00;0.86;446.53;0.00;0.00;0.62;;;;;22.80;1.00;;;;;;2280198;60;1166;-87
2023/07/18 02:29:49;317823.00;1.06;548.56;0.00;0.00;0.62;;;;;22.60;1.00;;;;;;2280261;60;1074;-85
2023/07/18 02:32:17;271410.00;0.90;468.77;0.00;0.00;0.62;;;;;22.20;1.00;;;;;;2280147;60;1409;-86
2023/07/18 02:34:45;316993.00;1.06;547.13;18429.00;0.06;32.55;;;;;21.90;1.00;;;;;;2280171;60;1060;-85
2023/07/18 02:37:12;362350.00;1.21;625.09;0.00;0.00;0.62;;;;;21.90;1.00;;;;;;2280242;60;1132;-87
2023/07/18 02:39:42;572082.00;1.91;986.04;38310.00;0.13;66.96;;;;;22.10;1.00;;;;;;2280170;60;1116;-85
2023/07/18 02:42:09;423893.00;1.41;730.88;0.00;0.00;0.62;;;;;22.10;1.00;;;;;;2280030;60;1477;-86
2023/07/18 02:44:36;183530.00;0.61;317.57;0.00;0.00;0.62;;;;;21.90;1.00;;;;;;2280059;60;2008;-85
2023/07/18 02:47:03;361098.00;1.20;622.94;0.00;0.00;0.62;;;;;21.70;1.00;;;;;;2280716;60;1148;-85
2023/07/18 02:49:31;432408.00;1.44;745.53;0.00;0.00;0.62;;;;;21.60;1.00;;;;;;2280814;60;923;-86
2023/07/18 02:51:58;262787.00;0.88;453.94;0.00;0.00;0.62;;;;;21.40;1.00;;;;;;2280788;60;1305;-85
2023/07/18 02:54:25;89006.00;0.30;154.59;0.00;0.00;0.62;;;;;21.50;1.00;;;;;;2280831;60;1101;-85
2023/07/18 02:56:52;213326.00;0.71;368.86;0.00;0.00;0.62;;;;;21.20;1.00;;;;;;2280898;60;1173;-85
2023/07/18 03:02:41;34061.00;0.11;59.61;0.00;0.00;0.62;;;;;21.10;1.00;;;;;;2280947;60;1354;-85
2023/07/18 03:05:10;253914.00;0.85;438.68;0.00;0.00;0.62;;;;;21.20;1.00;;;;;;2281127;60;2004;-87
2023/07/18 03:07:37;310448.00;1.03;535.88;0.00;0.00;0.62;;;;;21.30;1.00;;;;;;2281099;60;1246;-85
2023/07/18 03:10:07;467595.00;1.56;806.05;0.00;0.00;0.62;;;;;21.30;1.00;;;;;;2281068;60;1156;-84
2023/07/18 03:12:34;306064.00;1.02;528.34;32633.00;0.11;57.14;;;;;21.60;1.00;;;;;;2281063;60;1282;-85
2023/07/18 03:15:01;331956.00;1.11;572.85;0.00;0.00;0.62;;;;;21.50;1.00;;;;;;2280947;60;1007;-85
2023/07/18 03:17:28;278756.00;0.93;481.40;0.00;0.00;0.62;;;;;21.50;1.00;;;;;;2281075;60;1040;-87
2023/07/18 03:19:54;326733.00;1.09;563.87;0.00;0.00;0.62;;;;;21.50;1.00;;;;;;2281001;60;1158;-85
2023/07/18 03:22:23;285994.00;0.95;493.84;0.00;0.00;0.62;;;;;21.60;1.00;;;;;;2280945;60;1309;-85
2023/07/18 03:24:51;571168.00;1.90;984.46;106176.00;0.35;184.23;;;;;21.70;1.00;;;;;;2281000;60;2008;-86
2023/07/18 03:27:18;510717.00;1.70;880.28;72339.00;0.24;125.80;;;;;21.70;1.00;;;;;;2281064;60;997;-85
2023/07/18 03:29:45;428016.00;1.43;737.97;78220.00;0.26;135.96;;;;;21.80;1.00;;;;;;2280964;60;1114;-85
2023/07/18 03:32:12;532884.00;1.78;918.46;68749.00;0.23;119.60;;;;;21.50;1.00;;;;;;2280968;60;1363;-85
2023/07/18 03:34:39;311346.00;1.04;537.42;78730.00;0.26;136.84;;;;;21.10;1.00;;;;;;2280949;60;1019;-84
2023/07/18 03:37:07;297281.00;0.99;513.25;71515.00;0.24;124.38;;;;;20.80;1.00;;;;;;2281006;60;1145;-85
2023/07/18 03:39:35;548350.00;1.83;945.12;69323.00;0.23;120.59;;;;;20.60;1.00;;;;;;2280995;60;1144;-85
2023/07/18 03:42:02;630609.00;2.10;1087.10;79000.00;0.26;137.31;;;;;20.40;1.00;;;;;;2280727;60;1368;-85
2023/07/18 03:44:29;335250.00;1.12;578.51;65897.00;0.22;114.67;;;;;20.30;1.00;;;;;;2280932;60;1996;-85
2023/07/18 03:46:56;324366.00;1.08;559.80;72752.00;0.24;126.52;;;;;20.30;1.00;;;;;;2280978;60;1129;-85
2023/07/18 03:49:22;259218.00;0.86;447.80;71904.00;0.24;125.05;;;;;20.30;1.00;;;;;;2280884;60;1010;-85
2023/07/18 03:51:49;724347.00;2.41;1249.49;133933.00;0.45;232.11;;;;;20.40;1.00;;;;;;2280894;60;1416;-85
2023/07/18 03:54:16;436025.00;1.45;751.75;56310.00;0.19;98.10;;;;;20.60;1.00;;;;;;2280865;60;1058;-85
2023/07/18 03:56:45;410604.00;1.37;708.04;70190.00;0.23;122.09;;;;;20.90;1.00;;;;;;2280912;60;1168;-86
2023/07/18 03:59:12;547769.00;1.83;944.11;72362.00;0.24;125.84;;;;;21.40;1.00;;;;;;2280934;60;1045;-85
2023/07/18 04:01:38;315452.00;1.05;544.48;71338.00;0.24;124.07;;;;;21.50;1.00;;;;;;2280788;61;1289;-85
2023/07/18 04:04:05;338741.00;1.13;584.51;79085.00;0.26;137.46;;;;;21.80;1.00;;;;;;2280575;60;1155;-85
2023/07/18 04:06:33;191150.00;0.64;330.69;69003.00;0.23;120.04;;;;;22.20;1.00;;;;;;2280735;61;2005;-86
2023/07/18 04:09:00;332340.00;1.11;573.51;68362.00;0.23;118.93;;;;;22.00;1.00;;;;;;2280697;60;1169;-85
2023/07/18 04:11:27;361362.00;1.20;623.39;64301.00;0.21;111.91;;;;;21.60;1.00;;;;;;2280720;60;1422;-86
2023/07/18 04:13:55;174998.00;0.58;302.88;79783.00;0.27;138.66;;;;;21.90;1.00;;;;;;2280770;61;2173;-85
2023/07/18 04:16:21;357479.00;1.19;616.72;100689.00;0.34;174.76;;;;;21.90;1.00;;;;;;2280716;60;1115;-85
2023/07/18 04:18:48;252865.00;0.84;436.88;68043.00;0.23;118.38;;;;;22.10;1.00;;;;;;2280842;60;1014;-86
2023/07/18 04:21:15;163543.00;0.55;283.14;71249.00;0.24;123.92;;;;;21.90;1.00;;;;;;2280725;60;1327;-86
2023/07/18 04:23:42;183212.00;0.61;317.02;71216.00;0.24;123.86;;;;;22.00;1.00;;;;;;2280701;60;2028;-86
2023/07/18 04:26:09;163540.00;0.55;283.14;71466.00;0.24;124.29;;;;;22.10;1.00;;;;;;2280678;61;1915;-85
2023/07/18 04:28:37;236398.00;0.79;408.56;66733.00;0.22;116.11;;;;;22.10;1.00;;;;;;2280797;60;1074;-85
2023/07/18 04:31:06;180424.00;0.60;312.22;70844.00;0.24;123.22;;;;;22.10;1.00;;;;;;2280720;61;1336;-84
2023/07/18 04:33:35;323274.00;1.08;557.93;67063.00;0.22;116.68;;;;;22.10;1.00;;;;;;2280672;60;1238;-84
2023/07/18 04:36:02;423346.00;1.41;729.94;124925.00;0.42;216.58;;;;;22.00;1.00;;;;;;2280736;60;1093;-85
2023/07/18 04:38:29;345370.00;1.15;595.90;71506.00;0.24;124.36;;;;;22.10;1.00;;;;;;2280739;60;1140;-86
2023/07/18 04:40:56;356971.00;1.19;615.84;63283.00;0.21;110.15;;;;;22.10;1.00;;;;;;2280655;60;1404;-85
2023/07/18 04:43:23;412464.00;1.37;711.23;71741.00;0.24;124.77;;;;;22.00;1.00;;;;;;2280675;60;1140;-84
2023/07/18 04:45:51;494375.00;1.65;852.14;67730.00;0.23;117.84;;;;;22.20;1.00;;;;;;2280641;60;1915;-85
2023/07/18 04:48:20;342112.00;1.14;590.30;72550.00;0.24;126.17;;;;;21.60;1.00;;;;;;2280631;60;1047;-85
2023/07/18 04:50:50;119517656.00;398.39;69158520.00;70549.00;0.24;122.71;;;;;21.40;1.00;;;;;;2280543;61;1148;-84
2023/07/18 04:53:17;328037.00;1.09;566.11;73472.00;0.24;127.76;;;;;21.20;1.00;;;;;;2280401;60;2146;-85
2023/07/18 04:55:45;307012.00;1.02;529.97;75845.00;0.25;131.86;;;;;21.00;1.00;;;;;;2280626;60;1147;-85
2023/07/18 04:58:12;338709.00;1.13;584.45;69082.00;0.23;120.17;;;;;20.90;1.00;;;;;;2280583;60;1215;-84
2023/07/18 05:00:39;344660.00;1.15;594.68;74485.00;0.25;129.51;;;;;21.50;1.00;;;;;;2280587;60;1199;-83
2023/07/18 05:03:06;568502.00;1.90;979.86;62416.00;0.21;108.65;;;;;21.50;1.00;;;;;;2280563;60;1341;-84
2023/07/18 05:05:34;330064.00;1.10;569.60;60495.00;0.20;105.33;;;;;21.50;1.00;;;;;;2280416;60;1915;-84
2023/07/18 05:08:02;209165.00;0.70;361.70;70197.00;0.23;122.10;;;;;21.90;1.00;;;;;;2280308;60;1077;-85
2023/07/18 05:10:28;695653.00;2.32;1199.70;135133.00;0.45;234.18;;;;;22.10;1.00;;;;;;2280628;60;1254;-85
2023/07/18 05:12:56;352703.00;1.18;608.51;70671.00;0.24;122.92;;;;;22.40;1.00;;;;;;2280367;60;1359;-84
2023/07/18 05:15:24;285295.00;0.95;492.64;68796.00;0.23;119.68;;;;;22.50;1.00;;;;;;2280491;60;1168;-85
2023/07/18 05:17:51;355256.00;1.18;612.90;83676.00;0.28;145.39;;;;;22.70;1.00;;;;;;2280435;60;1145;-85
2023/07/18 05:20:18;269538.00;0.90;465.55;63558.00;0.21;110.63;;;;;22.90;1.00;;;;;;2280362;60;1121;-85
2023/07/18 05:22:47;298942.00;1.00;516.10;75878.00;0.25;131.92;;;;;22.80;1.00;;;;;;2280463;60;1475;-85
2023/07/18 05:25:16;334542.00;1.12;577.29;67861.00;0.23;118.06;;;;;22.90;1.00;;;;;;2280545;60;1922;-85
2023/07/18 05:27:43;367586.00;1.23;634.09;65002.00;0.22;113.12;;;;;22.90;1.00;;;;;;2280462;60;1123;-85
2023/07/18 05:30:15;629966.00;2.10;1085.99;222298.00;0.74;384.30;;;;;22.90;1.00;;;;;;2280340;60;1119;-85
2023/07/18 05:32:42;387966.00;1.29;669.12;71680.00;0.24;124.66;;;;;23.20;1.00;;;;;;2280503;60;1433;-85
2023/07/18 05:35:11;323489.00;1.08;558.30;65282.00;0.22;113.61;;;;;22.80;1.00;;;;;;2280580;60;1001;-85
2023/07/18 05:37:38;215336.00;0.72;372.32;0.00;0.00;0.62;;;;;22.70;1.00;;;;;;2279847;60;1145;-85
2023/07/18 05:40:09;383023.00;1.28;660.62;0.00;0.00;0.62;;;;;23.10;1.00;;;;;;2280177;61;1042;-85
2023/07/18 05:42:36;288030.00;0.96;497.34;0.00;0.00;0.62;;;;;23.50;1.00;;;;;;2279998;61;1552;-85
2023/07/18 05:45:04;126519.00;0.42;219.33;24093.00;0.08;42.36;;;;;23.20;1.00;;;;;;2279572;61;1113;-86
2023/07/18 05:47:31;79240.00;0.26;137.72;0.00;0.00;0.62;;;;;23.50;1.00;;;;;;2279887;61;1977;-83
2023/07/18 05:49:58;405929.00;1.35;700.00;0.00;0.00;0.62;;;;;24.30;1.00;;;;;;2280210;60;1129;-83
2023/07/18 05:52:25;181267.00;0.60;313.67;0.00;0.00;0.62;;;;;25.30;1.00;;;;;;2279565;61;1392;-85
2023/07/18 05:54:52;93395.00;0.31;162.17;0.00;0.00;0.62;;;;;27.40;1.00;;;;;;2279336;61;1138;-85
2023/07/18 05:57:21;12749.00;0.04;22.71;0.00;0.00;0.62;;;;;28.90;1.00;;;;;;2278691;61;1164;-86
2023/07/18 05:59:47;48262.00;0.16;84.18;0.00;0.00;0.62;;;;;29.30;1.00;;;;;;2278523;61;1067;-86
2023/07/18 06:02:15;133063.00;0.44;230.61;0.00;0.00;0.62;;;;;30.00;1.00;;;;;;2277821;61;1384;-86
2023/07/18 06:04:42;207989.00;0.69;359.67;0.00;0.00;0.62;;;;;30.70;1.00;;;;;;2277189;61;1171;-85
2023/07/18 06:07:09;108773.00;0.36;188.71;0.00;0.00;0.62;;;;;32.00;1.00;;;;;;2277014;61;2025;-86
2023/07/18 06:09:36;74430.00;0.25;129.41;0.00;0.00;0.62;;;;;32.90;1.00;;;;;;2277139;61;1116;-85
2023/07/18 06:12:04;60341.00;0.20;105.07;0.00;0.00;0.62;;;;;33.60;1.00;;;;;;2277036;61;1244;-84
2023/07/18 06:14:32;61151.00;0.20;106.47;0.00;0.00;0.62;;;;;33.50;1.00;;;;;;2277990;61;2354;-86
2023/07/18 06:16:58;28375.00;0.09;49.77;0.00;0.00;0.62;;;;;33.10;1.00;;;;;;2277940;61;1085;-85
2023/07/18 06:19:25;86540.00;0.29;150.33;0.00;0.00;0.62;;;;;33.60;1.00;;;;;;2276673;61;1287;-84
2023/07/18 06:21:53;83311.00;0.28;144.76;0.00;0.00;0.62;;;;;34.70;1.00;;;;;;2277526;61;1284;-85
2023/07/18 06:24:20;402516.00;1.34;694.13;58489.00;0.19;101.86;;;;;35.00;1.00;;;;;;2278436;61;1137;-85
2023/07/18 06:26:48;56922.00;0.19;99.16;0.00;0.00;0.62;;;;;34.80;1.00;;;;;;2279151;61;1927;-85
2023/07/18 06:29:17;332695.00;1.11;574.12;80802.00;0.27;140.42;;;;;34.30;1.00;;;;;;2278403;61;1058;-85
2023/07/18 06:31:45;73242.00;0.24;127.36;0.00;0.00;0.62;;;;;34.80;1.00;;;;;;2279444;61;1312;-85
2023/07/18 06:34:12;32665.00;0.11;57.20;0.00;0.00;0.62;;;;;34.30;1.00;;;;;;2279274;61;1148;-84
2023/07/18 06:36:39;264949.00;0.88;457.66;0.00;0.00;0.62;;;;;34.50;1.00;;;;;;2277491;61;1156;-84
2023/07/18 06:39:06;81617.00;0.27;141.83;0.00;0.00;0.62;;;;;35.60;1.00;;;;;;2278686;61;1170;-83
2023/07/18 06:41:33;249564.00;0.83;431.20;53384.00;0.18;93.04;;;;;35.30;1.00;;;;;;2277990;61;1318;-84
2023/07/18 06:44:00;232262.00;0.77;401.44;58874.00;0.20;102.53;;;;;36.20;1.00;;;;;;2277229;61;1093;-85
2023/07/18 06:46:27;181155.00;0.60;313.48;51249.00;0.17;89.35;;;;;36.90;1.00;;;;;;2276938;61;2003;-84
2023/07/18 06:48:55;242025.00;0.81;418.23;58395.00;0.19;101.70;;;;;36.80;1.00;;;;;;2277209;61;1165;-85
2023/07/18 06:51:21;201977.00;0.67;349.33;58119.00;0.19;101.22;;;;;36.70;1.00;;;;;;2276211;61;1375;-85
2023/07/18 06:53:48;193786.00;0.65;335.23;50329.00;0.17;87.76;;;;;37.10;1.00;;;;;;2277625;61;1155;-85
2023/07/18 06:56:15;256607.00;0.86;443.31;47904.00;0.16;83.56;;;;;36.50;1.00;;;;;;2276752;61;1171;-84
2023/07/18 06:58:42;221566.00;0.74;383.04;67749.00;0.23;117.87;;;;;37.00;1.00;;;;;;2278510;61;1064;-84
2023/07/18 07:01:10;214884.00;0.72;371.54;47642.00;0.16;83.11;;;;;36.50;1.00;;;;;;2279795;61;1363;-85
2023/07/18 07:03:37;585260.00;1.95;1008.78;93438.00;0.31;162.24;;;;;36.60;1.00;;;;;;2279224;61;1184;-85
2023/07/18 07:06:10;528391.00;1.76;910.72;135964.00;0.45;235.61;;;;;37.70;1.00;;;;;;2279401;61;1994;-85
2023/07/18 07:08:37;170480.00;0.57;295.09;52592.00;0.18;91.67;;;;;37.50;1.00;;;;;;2279650;61;1151;-84
2023/07/18 07:11:05;242986.00;0.81;419.89;50219.00;0.17;87.56;;;;;37.70;1.00;;;;;;2279375;61;1430;-86
2023/07/18 07:13:32;293656.00;0.98;507.01;51106.00;0.17;89.10;;;;;36.50;1.00;;;;;;2279964;60;1140;-85
2023/07/18 07:15:59;227905.00;0.76;393.94;50603.00;0.17;88.23;;;;;36.50;1.00;;;;;;2279872;61;1084;-86
2023/07/18 07:18:26;165805.00;0.55;287.04;52024.00;0.17;90.69;;;;;36.90;1.00;;;;;;2278811;61;1204;-85
2023/07/18 07:20:54;172943.00;0.58;299.34;58822.00;0.20;102.44;;;;;38.40;1.00;;;;;;2279506;60;1153;-85
2023/07/18 07:23:22;363920.00;1.21;627.79;49743.00;0.17;86.74;;;;;37.50;1.00;;;;;;2279570;61;1330;-85
2023/07/18 07:25:49;198812.00;0.66;343.88;62824.00;0.21;109.36;;;;;36.70;1.00;;;;;;2279882;61;1992;-85
2023/07/18 07:28:16;176803.00;0.59;305.98;62742.00;0.21;109.22;;;;;36.40;1.00;;;;;;2280124;60;1075;-85
2023/07/18 07:30:42;189952.00;0.63;328.63;60924.00;0.20;106.07;;;;;36.20;1.00;;;;;;2279038;61;1131;-85
2023/07/18 07:33:09;461415.00;1.54;795.42;107149.00;0.36;185.91;;;;;37.20;1.00;;;;;;2279505;61;1399;-84
2023/07/18 07:35:36;165398.00;0.55;286.34;55829.00;0.19;97.27;;;;;37.90;1.00;;;;;;2280529;60;1026;-85
2023/07/18 07:38:03;171305.00;0.57;296.51;49555.00;0.17;86.42;;;;;37.80;1.00;;;;;;2280923;60;1083;-84
2023/07/18 07:40:31;167154.00;0.56;289.36;54935.00;0.18;95.72;;;;;37.60;1.00;;;;;;2280959;60;1078;-86
2023/07/18 07:42:58;591980.00;1.97;1020.37;116736.00;0.39;202.45;;;;;37.60;1.00;;;;;;2279756;60;1407;-85
2023/07/18 07:45:25;186006.00;0.62;321.83;54568.00;0.18;95.09;;;;;38.10;1.00;;;;;;2280763;60;1122;-85
2023/07/18 07:47:52;169429.00;0.56;293.28;55767.00;0.19;97.16;;;;;37.50;1.00;;;;;;2280979;60;2054;-87
2023/07/18 07:50:19;167417.00;0.56;289.82;45929.00;0.15;80.15;;;;;37.00;1.00;;;;;;2280979;60;1102;-85
2023/07/18 07:52:46;208634.00;0.70;360.78;55401.00;0.18;96.53;;;;;36.90;1.00;;;;;;2280244;61;1320;-84
2023/07/18 07:55:13;173037.00;0.58;299.50;54458.00;0.18;94.90;;;;;37.10;1.00;;;;;;2280431;60;1166;-85
2023/07/18 07:57:43;175420.00;0.58;303.60;53346.00;0.18;92.97;;;;;36.70;1.00;;;;;;2280901;60;1130;-86
2023/07/18 08:00:12;486911.00;1.62;839.29;87148.00;0.29;151.38;;;;;37.00;1.00;;;;;;2280697;60;1055;-86
2023/07/18 08:02:39;254086.00;0.85;438.98;70638.00;0.24;122.86;;;;;37.00;1.00;;;;;;2280827;60;1386;-86
2023/07/18 08:05:06;422213.00;1.41;728.00;176911.00;0.59;306.17;;;;;36.40;1.00;;;;;;2279960;61;1121;-86
2023/07/18 08:07:33;166621.00;0.56;288.45;55129.00;0.18;96.06;;;;;37.80;1.00;;;;;;2279696;61;1998;-85
2023/07/18 08:10:00;166931.00;0.56;288.98;55438.00;0.18;96.59;;;;;38.60;1.00;;;;;;2280012;61;1146;-86
2023/07/18 08:12:27;204668.00;0.68;353.96;57147.00;0.19;99.54;;;;;38.50;1.00;;;;;;2279577;61;1310;-85
2023/07/18 08:14:55;172641.00;0.58;298.82;56714.00;0.19;98.80;;;;;38.10;1.00;;;;;;2279328;61;1144;-85
2023/07/18 08:17:22;213200.00;0.71;368.64;55091.00;0.18;95.99;;;;;38.10;1.00;;;;;;2279644;60;1105;-85
2023/07/18 08:19:49;229517.00;0.77;396.72;52012.00;0.17;90.67;;;;;38.20;1.00;;;;;;2280781;60;1139;-86
2023/07/18 08:22:16;109431.00;0.36;189.85;0.00;0.00;0.62;;;;;37.70;1.00;;;;;;2280019;61;1423;-86
2023/07/18 08:24:43;51200.00;0.17;89.26;0.00;0.00;0.62;;;;;37.70;1.00;;;;;;2280290;61;2200;-86
2023/07/18 08:27:10;106974.00;0.36;185.61;36098.00;0.12;63.14;;;;;37.10;1.00;;;;;;2280489;60;1990;-84
2023/07/18 08:29:37;0.00;0.00;0.62;0.00;0.00;0.62;;;;;36.00;1.00;;;;;;2280373;60;1130;-85
2023/07/18 08:32:06;0.00;0.00;0.62;0.00;0.00;0.62;;;;;34.40;1.00;;;;;;2280780;60;1385;-86
2023/07/18 08:34:34;165764.00;0.55;286.97;57698.00;0.19;100.50;;;;;34.50;1.00;;;;;;2280360;60;1019;-85
2023/07/18 08:37:02;186010.00;0.62;321.84;55184.00;0.18;96.15;;;;;34.90;1.00;;;;;;2280389;61;1123;-86
2023/07/18 08:39:29;164203.00;0.55;284.28;53267.00;0.18;92.84;;;;;35.50;1.00;;;;;;2280270;60;1143;-85
2023/07/18 08:41:59;0.00;0.00;0.62;0.00;0.00;0.62;;;;;35.90;1.00;;;;;;2279702;61;1347;-85
2023/07/18 08:44:26;0.00;0.00;0.62;0.00;0.00;0.62;;;;;35.90;1.00;;;;;;2280074;60;1151;-84
2023/07/18 08:46:54;0.00;0.00;0.62;0.00;0.00;0.62;;;;;35.90;1.00;;;;;;2279931;61;1998;-85
2023/07/18 08:49:27;0.00;0.00;0.62;0.00;0.00;0.62;;;;;36.60;1.00;;;;;;2280638;60;1112;-87
2023/07/18 08:51:54;34347.00;0.11;60.11;0.00;0.00;0.62;;;;;36.20;1.00;;;;;;2280560;60;1303;-85
2023/07/18 08:54:21;0.00;0.00;0.62;0.00;0.00;0.62;;;;;35.80;1.00;;;;;;2280354;61;1018;-85
2023/07/18 08:56:49;0.00;0.00;0.62;0.00;0.00;0.62;;;;;35.60;1.00;;;;;;2280714;60;1211;-86
2023/07/18 08:59:18;0.00;0.00;0.62;0.00;0.00;0.62;;;;;35.40;1.00;;;;;;2280718;60;1062;-85
2023/07/18 09:01:48;0.00;0.00;0.62;0.00;0.00;0.62;;;;;34.60;1.00;;;;;;2280644;60;2197;-85
2023/07/18 09:04:15;27172.00;0.09;47.69;0.00;0.00;0.62;;;;;34.40;1.00;;;;;;2280657;60;1138;-85
2023/07/18 09:06:49;147.00;0.00;0.87;0.00;0.00;0.62;;;;;35.40;1.00;;;;;;2280678;60;1990;-86
2023/07/18 09:09:17;0.00;0.00;0.62;0.00;0.00;0.62;;;;;35.70;1.00;;;;;;2280688;60;950;-85
2023/07/18 09:11:55;122148.00;0.41;211.79;0.00;0.00;0.62;;;;;35.30;1.00;;;;;;2280634;60;1312;-84
2023/07/18 09:14:26;0.00;0.00;0.62;0.00;0.00;0.62;;;;;35.40;1.00;;;;;;2280684;60;1062;-84
2023/07/18 09:16:54;0.00;0.00;0.62;0.00;0.00;0.62;;;;;35.50;1.00;;;;;;2280588;60;1067;-85
2023/07/18 09:19:21;0.00;0.00;0.62;0.00;0.00;0.62;;;;;35.40;1.00;;;;;;2280684;60;1236;-85
2023/07/18 09:21:59;17914.00;0.06;31.66;0.00;0.00;0.62;;;;;35.80;1.00;;;;;;2280522;60;2225;-84
2023/07/18 09:24:31;12607.00;0.04;22.47;0.00;0.00;0.62;;;;;35.50;1.00;;;;;;2280637;60;1076;-85
2023/07/18 09:26:58;0.00;0.00;0.62;0.00;0.00;0.62;;;;;35.10;1.00;;;;;;2280647;60;1913;-85
2023/07/18 09:29:25;0.00;0.00;0.62;0.00;0.00;0.62;;;;;34.20;1.00;;;;;;2280514;60;1047;-85
2023/07/18 09:31:52;15928.00;0.05;28.22;0.00;0.00;0.62;;;;;33.70;1.00;;;;;;2280595;60;1559;-84
2023/07/18 09:34:19;0.00;0.00;0.62;0.00;0.00;0.62;;;;;33.40;1.00;;;;;;2280583;60;1099;-83
2023/07/18 09:36:58;0.00;0.00;0.62;0.00;0.00;0.62;;;;;33.50;1.00;;;;;;2280656;60;894;-85
2023/07/18 09:39:26;57606.00;0.19;100.34;0.00;0.00;0.62;;;;;33.20;1.00;;;;;;2280603;60;1113;-84
2023/07/18 09:41:54;0.00;0.00;0.62;0.00;0.00;0.62;;;;;33.10;1.00;;;;;;2280549;60;1395;-85
2023/07/18 09:44:23;0.00;0.00;0.62;0.00;0.00;0.62;;;;;32.60;1.00;;;;;;2280608;60;893;-85
2023/07/18 09:46:51;17175.00;0.06;30.38;0.00;0.00;0.62;;;;;32.50;1.00;;;;;;2280543;60;1921;-85
2023/07/18 09:49:18;13632.00;0.05;24.24;0.00;0.00;0.62;;;;;32.70;1.00;;;;;;2280528;60;2333;-85
2023/07/18 09:51:50;0.00;0.00;0.62;0.00;0.00;0.62;;;;;33.10;1.00;;;;;;2280566;60;1395;-86
2023/07/18 09:54:21;0.00;0.00;0.62;0.00;0.00;0.62;;;;;33.00;1.00;;;;;;2280444;60;1650;-85
2023/07/18 09:56:51;77057.00;0.26;133.95;0.00;0.00;0.62;;;;;32.80;1.00;;;;;;2280432;60;1477;-84